Time;durP1;ratioP1;P1;durP2;ratioP2;P2;SDS_P1;SDS_P2;PMS_P1;PMS_P2;Temp;Humidity;BMP_temperature;BMP_pressure;BME280_temperature;BME280_humidity;BME280_pressure;Samples;Min_cycle;Max_cycle;Signal;HPM_P1;HPM_P2
2024/01/27 00:01:32;;;;;;;2.13;1.20;;;3.40;99.90;;;;;;4959716;28;20185;-82
2024/01/27 00:03:58;;;;;;;0.60;0.50;;;3.30;99.90;;;;;;4963068;28;20211;-83
2024/01/27 00:06:23;;;;;;;3.07;0.87;;;3.30;99.90;;;;;;4966464;28;20442;-82
2024/01/27 00:08:49;;;;;;;2.53;0.73;;;3.20;99.90;;;;;;4966559;28;20443;-83
2024/01/27 00:11:14;;;;;;;25.00;1.57;;;3.10;99.90;;;;;;4965295;28;20195;-83
2024/01/27 00:13:40;;;;;;;1.13;0.77;;;3.10;99.90;;;;;;4964068;28;20211;-82
2024/01/27 00:16:06;;;;;;;0.50;0.40;;;3.10;99.90;;;;;;4975291;28;20306;-83
2024/01/27 00:18:31;;;;;;;0.68;0.68;;;3.10;99.90;;;;;;4963632;28;20272;-83
2024/01/27 00:20:57;;;;;;;8.40;0.73;;;3.10;99.90;;;;;;4962528;28;20267;-86
2024/01/27 00:23:22;;;;;;;0.40;0.37;;;2.90;99.90;;;;;;4962919;28;20628;-88
2024/01/27 00:25:48;;;;;;;3.37;1.57;;;2.80;99.90;;;;;;4964300;28;20208;-84
2024/01/27 00:28:13;;;;;;;2.10;0.50;;;2.60;99.90;;;;;;4963707;28;20672;-83
2024/01/27 00:30:39;;;;;;;2.77;1.63;;;;;;;;;;4960614;28;20215;-84
2024/01/27 00:33:06;;;;;;;1.77;1.23;;;2.50;99.90;;;;;;4965273;28;20652;-84
2024/01/27 00:35:32;;;;;;;1.17;0.80;;;2.50;99.90;;;;;;4967428;28;20486;-85
2024/01/27 00:37:58;;;;;;;2.40;0.77;;;;;;;;;;4963398;28;20196;-83
2024/01/27 00:40:23;;;;;;;4.27;1.00;;;2.40;99.90;;;;;;4964128;28;20177;-83
2024/01/27 00:42:49;;;;;;;2.13;0.73;;;;;;;;;;4968589;28;20950;-82
2024/01/27 00:45:16;;;;;;;2.85;0.77;;;2.20;99.90;;;;;;4968257;28;20219;-84
2024/01/27 00:47:41;;;;;;;0.50;0.50;;;2.20;99.90;;;;;;4976351;28;20240;-85
2024/01/27 00:50:08;;;;;;;4.67;1.40;;;2.20;99.90;;;;;;4970105;28;20565;-84
2024/01/27 00:52:34;;;;;;;1.58;1.23;;;2.10;99.90;;;;;;4969988;28;21072;-87
2024/01/27 00:55:00;;;;;;;2.05;0.52;;;2.00;99.90;;;;;;4971567;28;20268;-86
2024/01/27 00:57:26;;;;;;;1.63;0.97;;;;;;;;;;4976794;28;20234;-86
2024/01/27 00:59:52;;;;;;;0.67;0.60;;;1.90;99.90;;;;;;4971604;28;20164;-87
2024/01/27 01:02:18;;;;;;;0.80;0.80;;;;;;;;;;4974227;28;20442;-86
2024/01/27 01:04:44;;;;;;;1.07;1.07;;;;;;;;;;4970345;28;20818;-85
2024/01/27 01:07:10;;;;;;;1.52;0.88;;;;;;;;;;4987254;28;20462;-86
2024/01/27 01:09:38;;;;;;;1.80;1.35;;;1.70;99.90;;;;;;4977508;28;20376;-86
2024/01/27 01:12:04;;;;;;;9.23;0.90;;;1.60;99.90;;;;;;4982866;28;20664;-87
2024/01/27 01:14:30;;;;;;;3.60;2.03;;;1.60;99.90;;;;;;4996368;28;20240;-86
2024/01/27 01:16:56;;;;;;;2.73;1.33;;;;;;;;;;4978766;28;20200;-85
2024/01/27 01:19:21;;;;;;;1.73;1.23;;;;;;;;;;4993727;28;20617;-86
2024/01/27 01:21:47;;;;;;;0.70;0.60;;;;;;;;;;4978720;28;20416;-86
2024/01/27 01:24:13;;;;;;;1.93;0.93;;;1.60;99.90;;;;;;4983252;28;20446;-86
2024/01/27 01:26:39;;;;;;;3.57;1.10;;;;;;;;;;5003509;28;20899;-86
2024/01/27 01:29:05;;;;;;;2.30;2.03;;;;;;;;;;4983510;28;20244;-87
2024/01/27 01:31:31;;;;;;;2.70;1.03;;;;;;;;;;4982335;28;20410;-86
2024/01/27 01:33:57;;;;;;;0.82;0.68;;;1.50;99.90;;;;;;4983813;28;20971;-86
2024/01/27 01:36:22;;;;;;;0.53;0.53;;;1.50;99.90;;;;;;4983188;28;20238;-87
2024/01/27 01:38:48;;;;;;;0.60;0.60;;;;;;;;;;4996904;28;20251;-86
2024/01/27 01:41:14;;;;;;;1.13;0.80;;;1.50;99.90;;;;;;4975908;28;20236;-86
2024/01/27 01:43:39;;;;;;;2.30;1.63;;;1.50;99.90;;;;;;4980229;28;20430;-86
2024/01/27 01:46:05;;;;;;;8.90;0.80;;;;;;;;;;4984634;28;20185;-86
2024/01/27 01:48:31;;;;;;;7.53;1.08;;;1.50;99.90;;;;;;4990577;28;20192;-86
2024/01/27 01:50:58;;;;;;;5.23;1.33;;;1.60;99.90;;;;;;4985116;28;20660;-86
2024/01/27 01:53:23;;;;;;;4.80;0.93;;;1.60;99.90;;;;;;4977983;28;20668;-86
2024/01/27 01:55:50;;;;;;;0.60;0.60;;;;;;;;;;4984820;28;20219;-86
2024/01/27 01:58:16;;;;;;;0.70;0.65;;;1.70;99.90;;;;;;4985098;28;20231;-86
2024/01/27 02:00:42;;;;;;;3.25;0.80;;;2.00;99.90;;;;;;4984792;28;20167;-86
2024/01/27 02:03:13;;;;;;;0.77;0.77;;;2.00;99.90;;;;;;4982757;28;20272;-86
2024/01/27 02:05:39;;;;;;;4.88;0.75;;;2.00;99.90;;;;;;4985708;28;20238;-85
2024/01/27 02:08:05;;;;;;;2.40;1.80;;;1.90;99.90;;;;;;4981347;28;20437;-86
2024/01/27 02:10:37;;;;;;;2.00;0.70;;;;;;;;;;4982042;28;20331;-85
2024/01/27 02:13:19;;;;;;;0.57;0.57;;;1.90;99.90;;;;;;4977492;28;20199;-85
2024/01/27 02:15:48;;;;;;;3.85;1.15;;;2.10;99.90;;;;;;4980532;28;20573;-87
2024/01/27 02:18:14;;;;;;;2.35;2.15;;;3.50;99.90;;;;;;4994548;28;20196;-86
2024/01/27 02:20:40;;;;;;;2.30;1.00;;;;;;;;;;4983039;28;20183;-86
2024/01/27 02:23:06;;;;;;;1.65;1.00;;;2.40;99.90;;;;;;4987505;28;20190;-85
2024/01/27 02:25:32;;;;;;;3.80;1.00;;;2.60;99.90;;;;;;4979405;28;20283;-85
2024/01/27 02:27:58;;;;;;;1.05;0.60;;;2.60;99.90;;;;;;4982327;28;20453;-85
2024/01/27 02:30:24;;;;;;;0.40;0.40;;;;;;;;;;4982782;28;20180;-85
2024/01/27 02:32:50;;;;;;;4.63;1.57;;;;;;;;;;4993437;28;20423;-85
2024/01/27 02:35:16;;;;;;;0.75;0.75;;;2.60;99.90;;;;;;4979277;28;20451;-85
2024/01/27 02:37:42;;;;;;;1.17;0.73;;;;;;;;;;4979479;28;20207;-87
2024/01/27 02:40:11;;;;;;;4.32;1.05;;;2.40;99.90;;;;;;4976777;28;20172;-86
2024/01/27 02:42:37;;;;;;;1.45;1.08;;;2.30;99.90;;;;;;4981868;28;20236;-87
2024/01/27 02:45:04;;;;;;;1.50;0.80;;;2.30;99.90;;;;;;4975646;28;20715;-86
2024/01/27 02:47:29;;;;;;;1.08;1.05;;;2.30;99.90;;;;;;4971245;28;20192;-86
2024/01/27 02:49:55;;;;;;;1.07;0.83;;;;;;;;;;4977902;28;20203;-85
2024/01/27 02:52:21;;;;;;;0.90;0.90;;;2.30;99.90;;;;;;4975807;28;20469;-85
2024/01/27 02:54:47;;;;;;;1.33;1.20;;;2.10;99.90;;;;;;4979713;28;20451;-86
2024/01/27 02:57:13;;;;;;;0.80;0.77;;;;;;;;;;4979310;28;20234;-87
2024/01/27 02:59:39;;;;;;;0.50;0.50;;;2.00;99.90;;;;;;4976198;28;20669;-87
2024/01/27 03:02:05;;;;;;;1.53;1.43;;;1.80;99.90;;;;;;4978676;28;20436;-86
2024/01/27 03:04:31;;;;;;;0.50;0.50;;;1.70;99.90;;;;;;4978899;28;20509;-85
2024/01/27 03:06:57;;;;;;;5.27;2.00;;;;;;;;;;4977561;28;20179;-86
2024/01/27 03:09:23;;;;;;;2.97;1.33;;;;;;;;;;4977514;28;20192;-85
2024/01/27 03:11:49;;;;;;;7.00;1.30;;;;;;;;;;4978341;28;20936;-85
2024/01/27 03:14:14;;;;;;;2.93;1.20;;;1.70;99.90;;;;;;4975093;28;20859;-85
2024/01/27 03:16:40;;;;;;;2.47;1.27;;;1.70;99.90;;;;;;4977007;28;20478;-85
2024/01/27 03:19:06;;;;;;;2.10;1.07;;;;;;;;;;4977146;28;20215;-86
2024/01/27 03:21:32;;;;;;;7.40;2.05;;;1.50;99.90;;;;;;4992647;28;20427;-87
2024/01/27 03:23:58;;;;;;;1.37;1.03;;;;;;;;;;4996385;28;20811;-86
2024/01/27 03:26:24;;;;;;;0.93;0.60;;;1.20;99.90;;;;;;4975548;28;20453;-85
2024/01/27 03:28:50;;;;;;;1.58;0.70;;;1.00;99.90;;;;;;4976933;28;20515;-85
2024/01/27 03:31:16;;;;;;;1.37;1.00;;;;;;;;;;4970606;28;20204;-84
2024/01/27 03:33:41;;;;;;;1.43;1.00;;;0.90;99.90;;;;;;4971460;28;20858;-85
2024/01/27 03:36:13;;;;;;;1.67;1.37;;;0.90;99.90;;;;;;4971423;28;20426;-85
2024/01/27 03:38:41;;;;;;;3.42;1.40;;;0.70;99.90;;;;;;4987490;28;20180;-85
2024/01/27 03:41:06;;;;;;;0.90;0.90;;;0.70;99.90;;;;;;4973620;28;20176;-84
2024/01/27 03:43:33;;;;;;;8.23;0.70;;;0.60;99.90;;;;;;4969861;28;20182;-86
2024/01/27 03:45:59;;;;;;;1.42;1.00;;;0.60;99.90;;;;;;4982364;23;20222;-81
2024/01/27 03:48:25;;;;;;;0.57;0.57;;;0.60;99.90;;;;;;4960555;28;20218;-86
2024/01/27 03:50:50;;;;;;;2.47;1.73;;;0.60;99.90;;;;;;4980908;28;20238;-83
2024/01/27 03:53:16;;;;;;;0.87;0.60;;;;;;;;;;4962511;28;20226;-82
2024/01/27 03:55:42;;;;;;;1.33;1.17;;;0.50;99.90;;;;;;4971191;28;20235;-82
2024/01/27 03:58:07;;;;;;;1.10;0.40;;;0.40;99.90;;;;;;4943803;28;20580;-81
2024/01/27 04:00:33;;;;;;;1.03;0.73;;;0.40;99.90;;;;;;4946099;28;20192;-83
2024/01/27 04:03:02;;;;;;;0.70;0.70;;;0.40;99.90;;;;;;4947233;28;20199;-84
2024/01/27 04:05:30;;;;;;;1.27;1.17;;;0.40;99.90;;;;;;4958313;28;20212;-82
2024/01/27 04:07:56;;;;;;;1.13;0.80;;;0.40;99.90;;;;;;4946306;28;20263;-82
2024/01/27 04:10:23;;;;;;;1.13;0.80;;;0.30;99.90;;;;;;4947640;28;20672;-84
2024/01/27 04:12:48;;;;;;;2.72;1.77;;;0.20;99.90;;;;;;4949751;28;20447;-83
2024/01/27 04:15:14;;;;;;;1.30;0.97;;;;;;;;;;4947511;28;20242;-85
2024/01/27 04:17:41;;;;;;;1.57;1.13;;;0.20;99.90;;;;;;4950769;28;20205;-83
2024/01/27 04:20:10;;;;;;;1.55;1.05;;;0.20;99.90;;;;;;4960797;28;20467;-83
2024/01/27 04:22:36;;;;;;;0.85;0.75;;;0.20;99.90;;;;;;4965262;28;20187;-83
2024/01/27 04:25:01;;;;;;;2.93;0.90;;;0.10;99.90;;;;;;4950163;28;20286;-83
2024/01/27 04:27:27;;;;;;;1.40;1.30;;;0.10;99.90;;;;;;4948665;28;20199;-83
2024/01/27 04:29:53;;;;;;;0.70;0.70;;;0.10;99.90;;;;;;4949320;28;20197;-82
2024/01/27 04:32:19;;;;;;;3.60;1.40;;;;;;;;;;4947754;28;20784;-81
2024/01/27 04:34:44;;;;;;;2.33;0.67;;;0.10;99.90;;;;;;4980377;28;20239;-84
2024/01/27 04:37:10;;;;;;;0.70;0.70;;;;;;;;;;4965693;28;20491;-81
2024/01/27 04:39:37;;;;;;;1.88;0.73;;;0.10;99.90;;;;;;4948672;28;20311;-82
2024/01/27 04:42:06;;;;;;;1.60;0.90;;;0.10;99.90;;;;;;4944214;28;20192;-82
2024/01/27 04:44:31;;;;;;;1.13;1.02;;;0.10;99.90;;;;;;4948452;28;20195;-83
2024/01/27 04:46:57;;;;;;;2.67;1.10;;;0.10;99.90;;;;;;4951324;28;20271;-82
2024/01/27 04:49:22;;;;;;;2.33;1.40;;;0.10;99.90;;;;;;4950836;28;20247;-80
2024/01/27 04:51:49;;;;;;;5.27;1.90;;;0.10;99.90;;;;;;4950617;28;20255;-83
2024/01/27 04:54:15;;;;;;;0.70;0.50;;;0.10;99.90;;;;;;4966322;28;20182;-82
2024/01/27 04:56:40;;;;;;;18.47;1.93;;;0.10;99.90;;;;;;4949847;28;20227;-81
2024/01/27 04:59:06;;;;;;;22.97;1.10;;;0.00;99.90;;;;;;4949465;28;20176;-83
2024/01/27 05:01:32;;;;;;;1.00;0.90;;;0.00;99.90;;;;;;4950751;28;20192;-82
2024/01/27 05:03:57;;;;;;;3.30;1.17;;;0.00;99.90;;;;;;4948079;28;20198;-84
2024/01/27 05:06:23;;;;;;;1.00;0.80;;;-0.10;99.90;;;;;;4949806;28;20227;-84
2024/01/27 05:08:49;;;;;;;0.40;0.40;;;;;;;;;;4964859;28;20282;-82
2024/01/27 05:11:25;;;;;;;4.33;0.80;;;-0.10;99.90;;;;;;4969730;28;20925;-83
2024/01/27 05:13:50;;;;;;;1.33;0.45;;;-0.10;99.90;;;;;;4949617;28;20460;-82
2024/01/27 05:16:15;;;;;;;0.60;0.60;;;-0.10;99.90;;;;;;4977686;28;20242;-83
2024/01/27 05:18:41;;;;;;;0.93;0.80;;;-0.10;99.90;;;;;;4961816;28;20194;-84
2024/01/27 05:21:07;;;;;;;1.03;0.80;;;-0.20;99.90;;;;;;4950817;28;20188;-86
2024/01/27 05:23:32;;;;;;;0.93;0.93;;;-0.20;99.90;;;;;;4950951;28;20495;-85
2024/01/27 05:25:58;;;;;;;2.00;0.93;;;;;;;;;;4951590;28;20548;-85
2024/01/27 05:28:24;;;;;;;8.63;0.83;;;;;;;;;;4964078;28;20192;-85
2024/01/27 05:30:50;;;;;;;6.73;2.20;;;;;;;;;;4962739;28;20492;-84
2024/01/27 05:33:16;;;;;;;1.07;0.73;;;-0.40;99.90;;;;;;4963045;28;20448;-86
2024/01/27 05:35:42;;;;;;;1.13;1.03;;;;;;;;;;4964039;28;20456;-83
2024/01/27 05:38:08;;;;;;;2.20;1.00;;;;;;;;;;4983900;28;20280;-85
2024/01/27 05:40:33;;;;;;;0.75;0.52;;;-0.40;99.90;;;;;;4969502;28;23830;-84
2024/01/27 05:42:59;;;;;;;1.23;1.23;;;;;;;;;;4948669;28;20184;-84
2024/01/27 05:45:26;;;;;;;0.60;0.60;;;-0.40;99.90;;;;;;4962312;28;20307;-86
2024/01/27 05:47:52;;;;;;;3.58;1.58;;;-0.50;99.90;;;;;;4970147;28;20468;-83
2024/01/27 05:50:17;;;;;;;0.83;0.40;;;-0.50;99.90;;;;;;4964759;28;20259;-86
2024/01/27 05:52:43;;;;;;;2.70;1.10;;;-0.50;99.90;;;;;;4963329;28;20650;-85
2024/01/27 05:55:09;;;;;;;5.63;1.07;;;-0.50;99.90;;;;;;4952674;28;20264;-84
2024/01/27 05:57:35;;;;;;;2.63;1.40;;;-0.50;99.90;;;;;;4950929;28;20475;-84
2024/01/27 06:00:01;;;;;;;0.73;0.60;;;;;;;;;;4963522;28;20187;-83
2024/01/27 06:02:27;;;;;;;2.00;1.38;;;-0.50;99.90;;;;;;4946240;28;20181;-82
2024/01/27 06:04:52;;;;;;;4.07;0.50;;;-0.40;99.90;;;;;;4951675;28;20260;-85
2024/01/27 06:07:18;;;;;;;1.47;0.60;;;-0.40;99.90;;;;;;4947343;28;20184;-84
2024/01/27 06:09:44;;;;;;;1.03;0.73;;;;;;;;;;4947569;28;20197;-83
2024/01/27 06:12:09;;;;;;;0.80;0.80;;;-0.50;99.90;;;;;;4946328;28;20597;-84
2024/01/27 06:14:35;;;;;;;0.97;0.77;;;-0.50;99.90;;;;;;4945320;28;20447;-82
2024/01/27 06:17:02;;;;;;;1.53;1.43;;;-0.50;99.90;;;;;;4947169;29;20192;-82
2024/01/27 06:19:28;;;;;;;3.03;1.02;;;-0.60;99.90;;;;;;4960091;28;20203;-81
2024/01/27 06:21:53;;;;;;;0.80;0.63;;;-0.60;99.90;;;;;;4945852;28;20196;-83
2024/01/27 06:24:19;;;;;;;3.00;0.90;;;-0.50;99.90;;;;;;4941355;28;20315;-86
2024/01/27 06:26:45;;;;;;;0.43;0.43;;;-0.50;99.90;;;;;;4975502;28;20216;-83
2024/01/27 06:29:10;;;;;;;1.65;0.85;;;-0.50;99.90;;;;;;4974038;28;20185;-85
2024/01/27 06:31:36;;;;;;;0.85;0.73;;;-0.60;99.90;;;;;;4950085;28;20192;-85
2024/01/27 06:34:02;;;;;;;0.93;0.90;;;;;;;;;;4943829;28;20181;-84
2024/01/27 06:36:28;;;;;;;2.93;1.90;;;;;;;;;;4949116;28;20692;-83
2024/01/27 06:38:54;;;;;;;2.25;1.33;;;-0.80;99.90;;;;;;4946933;28;20420;-84
2024/01/27 06:41:20;;;;;;;1.73;0.80;;;;;;;;;;4957510;28;20195;-83
2024/01/27 06:43:47;;;;;;;4.78;0.93;;;-0.30;99.90;;;;;;4943615;28;20243;-83
2024/01/27 06:46:12;;;;;;;0.90;0.90;;;-0.50;99.90;;;;;;4944052;28;20212;-83
2024/01/27 06:48:38;;;;;;;0.60;0.60;;;;;;;;;;4963844;28;20180;-82
2024/01/27 06:51:04;;;;;;;0.80;0.80;;;;;;;;;;4946714;28;20219;-83
2024/01/27 06:53:31;;;;;;;4.00;1.30;;;-0.70;99.90;;;;;;4944605;28;20791;-85
2024/01/27 06:55:56;;;;;;;1.55;1.23;;;-0.80;99.90;;;;;;4948276;28;20455;-82
2024/01/27 06:58:22;;;;;;;5.27;1.53;;;-0.60;99.90;;;;;;4941718;28;20212;-84
2024/01/27 07:00:47;;;;;;;2.30;0.80;;;-0.70;99.90;;;;;;4942815;28;20731;-84
2024/01/27 07:03:13;;;;;;;1.37;0.93;;;-0.70;99.90;;;;;;4945534;28;20177;-83
2024/01/27 07:05:40;;;;;;;2.50;2.13;;;-0.70;99.90;;;;;;4945070;28;20193;-83
2024/01/27 07:08:07;;;;;;;0.88;0.88;;;-0.70;99.90;;;;;;4950849;28;20204;-83
2024/01/27 07:10:33;;;;;;;1.77;0.95;;;-0.60;99.90;;;;;;4943047;28;20196;-82
2024/01/27 07:12:58;;;;;;;0.40;0.40;;;-0.40;99.90;;;;;;4971321;28;20286;-81
2024/01/27 07:15:24;;;;;;;0.60;0.60;;;-0.40;99.90;;;;;;4940035;28;20693;-82
2024/01/27 07:17:49;;;;;;;1.53;0.80;;;-0.50;99.90;;;;;;4960215;28;20223;-83
2024/01/27 07:20:15;;;;;;;0.80;0.80;;;-0.50;99.90;;;;;;4939628;28;20448;-82
2024/01/27 07:22:41;;;;;;;0.80;0.80;;;-0.60;99.90;;;;;;4972347;28;20665;-82
2024/01/27 07:25:09;;;;;;;0.45;0.45;;;-0.60;99.90;;;;;;4957026;28;20239;-83
2024/01/27 07:27:36;;;;;;;1.02;1.00;;;-0.60;99.90;;;;;;4947284;28;20280;-84
2024/01/27 07:30:03;;;;;;;17.05;1.67;;;-0.50;99.90;;;;;;4941816;28;20189;-84
2024/01/27 07:32:28;;;;;;;7.70;1.63;;;-0.30;99.90;;;;;;4955328;28;20597;-83
2024/01/27 07:34:54;;;;;;;2.70;1.40;;;;;;;;;;4942456;28;20294;-83
2024/01/27 07:37:20;;;;;;;2.90;1.80;;;1.40;99.90;;;;;;4939379;28;20596;-83
2024/01/27 07:39:48;;;;;;;10.68;1.50;;;2.40;99.90;;;;;;4973376;28;20431;-85
2024/01/27 07:42:14;;;;;;;5.03;2.33;;;4.50;99.90;;;;;;4946847;28;20224;-83
2024/01/27 07:44:39;;;;;;;4.07;1.83;;;5.10;99.90;;;;;;4964683;28;20188;-83
2024/01/27 07:47:05;;;;;;;10.40;2.00;;;5.90;99.90;;;;;;4953075;28;20525;-87
2024/01/27 07:49:31;;;;;;;6.17;1.80;;;;;;;;;;4954414;28;20192;-87
2024/01/27 07:51:56;;;;;;;3.60;2.77;;;6.30;99.90;;;;;;4964054;28;20216;-86
2024/01/27 07:54:22;;;;;;;3.00;1.30;;;;;;;;;;4952778;28;20519;-85
2024/01/27 07:56:48;;;;;;;1.50;1.25;;;;;;;;;;4947343;28;20204;-84
2024/01/27 07:59:15;;;;;;;3.97;2.00;;;;;;;;;;4948877;28;20238;-85
2024/01/27 08:01:41;;;;;;;1.40;1.23;;;;;;;;;;4981145;28;20322;-84
2024/01/27 08:04:08;;;;;;;3.95;1.50;;;;;;;;;;4975151;28;20188;-82
2024/01/27 08:06:33;;;;;;;6.10;1.65;;;11.40;99.90;;;;;;4978355;28;20211;-86
2024/01/27 08:08:59;;;;;;;4.80;2.17;;;12.00;99.90;;;;;;4950619;28;20571;-85
2024/01/27 08:11:25;;;;;;;4.80;2.30;;;11.80;99.90;;;;;;4948356;28;20259;-81
2024/01/27 08:13:51;;;;;;;5.40;3.00;;;;;;;;;;4946151;28;20649;-83
2024/01/27 08:16:17;;;;;;;3.53;2.22;;;10.90;99.90;;;;;;4946041;28;20459;-85
2024/01/27 08:18:44;;;;;;;1.83;1.20;;;10.50;99.90;;;;;;4943931;28;20672;-81
2024/01/27 08:21:10;;;;;;;1.40;1.30;;;;;;;;;;4974759;28;20200;-83
2024/01/27 08:23:36;;;;;;;1.73;1.10;;;11.00;99.90;;;;;;4945668;28;20192;-83
2024/01/27 08:26:01;;;;;;;5.70;1.97;;;11.60;99.90;;;;;;4945359;28;20560;-84
2024/01/27 08:28:27;;;;;;;13.10;2.50;;;11.70;99.90;;;;;;4944100;28;20200;-82
2024/01/27 08:30:53;;;;;;;2.17;1.70;;;11.70;99.90;;;;;;4962132;28;20289;-84
2024/01/27 08:33:19;;;;;;;6.07;1.80;;;;;;;;;;4941175;28;20192;-84
2024/01/27 08:35:47;;;;;;;3.13;1.23;;;10.80;99.80;;;;;;4942520;28;20222;-81
2024/01/27 08:38:13;;;;;;;1.30;0.95;;;10.80;99.90;;;;;;4939344;28;20271;-83
2024/01/27 08:40:39;;;;;;;9.67;2.07;;;;;;;;;;4952877;28;20189;-83
2024/01/27 08:43:05;;;;;;;2.67;1.57;;;9.30;99.90;;;;;;4940147;28;20189;-84
2024/01/27 08:45:31;;;;;;;3.75;2.28;;;;;;;;;;4973590;28;20496;-84
2024/01/27 08:47:57;;;;;;;12.30;2.40;;;10.30;99.90;;;;;;4956965;28;20189;-83
2024/01/27 08:50:23;;;;;;;3.07;1.80;;;;;;;;;;4959651;28;20979;-84
2024/01/27 08:52:48;;;;;;;3.10;2.00;;;10.30;99.90;;;;;;4972232;28;20560;-83
2024/01/27 08:55:18;;;;;;;4.03;1.40;;;;;;;;;;4943206;28;20580;-85
2024/01/27 08:57:44;;;;;;;6.32;2.10;;;10.70;99.90;;;;;;4947290;28;20200;-83
2024/01/27 09:00:11;;;;;;;2.22;1.90;;;11.50;99.90;;;;;;4941491;28;20566;-79
2024/01/27 09:02:36;;;;;;;6.28;1.85;;;;;;;;;;4939124;28;20173;-82
2024/01/27 09:05:03;;;;;;;4.43;2.17;;;;;;;;;;4938063;28;20208;-83
2024/01/27 09:07:29;;;;;;;4.38;2.67;;;11.60;97.80;;;;;;4941615;28;20444;-83
2024/01/27 09:09:54;;;;;;;15.60;2.15;;;11.60;98.10;;;;;;4938509;28;20263;-83
2024/01/27 09:12:21;;;;;;;3.40;2.57;;;10.60;97.30;;;;;;4953563;28;20310;-82
2024/01/27 09:14:47;;;;;;;4.93;2.47;;;10.60;97.80;;;;;;4944530;28;20231;-84
2024/01/27 09:17:12;;;;;;;7.40;2.43;;;10.10;99.40;;;;;;4939297;28;20215;-82
2024/01/27 09:19:38;;;;;;;3.40;3.10;;;;;;;;;;4938565;28;20209;-85
2024/01/27 09:22:04;;;;;;;4.13;2.10;;;;;;;;;;4976727;28;20515;-82
2024/01/27 09:24:30;;;;;;;5.03;3.07;;;;;;;;;;4940072;28;20444;-82
2024/01/27 09:26:56;;;;;;;5.50;2.47;;;;;;;;;;4939629;28;20439;-82
2024/01/27 09:29:21;;;;;;;1.87;1.73;;;7.90;99.70;;;;;;4938185;28;20546;-85
2024/01/27 09:31:47;;;;;;;2.80;2.60;;;10.30;99.90;;;;;;4938800;28;20829;-81
2024/01/27 09:34:13;;;;;;;2.53;1.65;;;;;;;;;;4937987;28;20200;-84
2024/01/27 09:36:39;;;;;;;3.63;1.77;;;10.80;99.10;;;;;;4950270;28;20224;-83
2024/01/27 09:39:04;;;;;;;7.60;2.53;;;11.00;99.90;;;;;;4936262;28;20451;-81
2024/01/27 09:41:33;;;;;;;2.77;1.57;;;11.00;99.90;;;;;;4966993;28;20243;-80
2024/01/27 09:44:03;;;;;;;3.38;2.45;;;11.00;98.70;;;;;;4947636;28;20181;-80
2024/01/27 09:46:30;;;;;;;2.83;2.47;;;11.30;98.90;;;;;;5000822;23;20223;-84
2024/01/27 09:48:56;;;;;;;6.32;2.40;;;;;;;;;;5002088;28;20575;-83
2024/01/27 09:51:22;;;;;;;2.72;2.53;;;;;;;;;;4996552;28;20339;-84
2024/01/27 09:53:51;;;;;;;2.77;1.33;;;;;;;;;;4992094;28;20725;-85
2024/01/27 09:56:20;;;;;;;4.10;2.08;;;;;;;;;;4986912;28;20465;-85
2024/01/27 09:58:49;;;;;;;6.68;3.03;;;;;;;;;;4996605;28;20587;-84
2024/01/27 10:01:19;;;;;;;2.05;1.83;;;8.50;99.90;;;;;;5005920;28;20195;-84
2024/01/27 10:03:46;;;;;;;6.30;2.25;;;;;;;;;;4977813;28;20234;-84
2024/01/27 10:06:12;;;;;;;2.05;1.55;;;;;;;;;;4990657;28;20210;-83
2024/01/27 10:08:38;;;;;;;4.20;1.75;;;;;;;;;;4969949;28;20203;-84
2024/01/27 10:11:08;;;;;;;2.50;1.93;;;6.20;99.90;;;;;;4990247;28;20246;-85
2024/01/27 10:13:34;;;;;;;3.38;2.67;;;;;;;;;;4990454;28;20848;-85
2024/01/27 10:16:01;;;;;;;4.85;2.20;;;5.80;99.90;;;;;;4991416;28;20209;-84
2024/01/27 10:18:26;;;;;;;4.75;2.35;;;5.70;99.90;;;;;;4990251;28;20605;-84
2024/01/27 10:20:52;;;;;;;3.70;1.93;;;5.60;99.90;;;;;;4996267;28;20175;-85
2024/01/27 10:23:19;;;;;;;15.77;2.30;;;5.20;99.90;;;;;;5009927;28;20175;-84
2024/01/27 10:25:46;;;;;;;6.82;3.42;;;5.20;99.90;;;;;;5001365;28;20218;-86
2024/01/27 10:28:20;;;;;;;3.58;2.35;;;5.10;99.90;;;;;;5009645;28;20210;-88
2024/01/27 10:30:48;;;;;;;5.97;3.60;;;5.00;99.90;;;;;;4996292;28;20175;-86
2024/01/27 10:33:15;;;;;;;2.53;1.63;;;5.00;99.90;;;;;;5010236;28;20162;-83
2024/01/27 10:35:42;;;;;;;6.68;3.20;;;4.90;99.90;;;;;;5013978;28;20198;-85
2024/01/27 10:38:09;;;;;;;15.73;3.38;;;4.90;99.90;;;;;;4986384;28;20375;-84
2024/01/27 10:40:38;;;;;;;8.10;3.50;;;5.00;99.90;;;;;;5009929;28;20172;-84
2024/01/27 10:43:08;;;;;;;9.82;4.43;;;5.00;99.90;;;;;;4998292;28;20167;-86
2024/01/27 10:45:39;;;;;;;11.32;3.55;;;5.10;99.90;;;;;;5028798;28;20399;-85
2024/01/27 10:48:06;;;;;;;7.47;3.17;;;5.20;99.90;;;;;;4998391;28;20250;-83
2024/01/27 10:50:39;;;;;;;7.32;3.40;;;5.30;99.90;;;;;;5025071;28;20186;-84
2024/01/27 10:53:09;;;;;;;3.92;3.33;;;5.50;99.90;;;;;;5008754;28;20179;-85
2024/01/27 10:55:35;;;;;;;9.65;3.00;;;5.60;99.90;;;;;;4992198;28;20207;-85
2024/01/27 10:58:02;;;;;;;5.28;3.15;;;5.60;99.90;;;;;;5010189;28;20221;-84
2024/01/27 11:00:33;;;;;;;6.75;2.70;;;5.60;99.90;;;;;;5013827;28;20194;-84
2024/01/27 11:03:01;;;;;;;3.70;2.85;;;5.50;99.90;;;;;;5011058;28;20174;-85
2024/01/27 11:05:31;;;;;;;3.65;2.90;;;5.70;99.90;;;;;;5007348;28;20191;-84
2024/01/27 11:07:58;;;;;;;2.75;2.15;;;5.70;99.90;;;;;;4993089;28;20199;-85
2024/01/27 11:10:25;;;;;;;16.38;3.20;;;5.60;99.90;;;;;;4998380;28;20183;-85
2024/01/27 11:12:52;;;;;;;4.28;3.13;;;6.70;99.90;;;;;;4995926;28;20190;-85
2024/01/27 11:15:18;;;;;;;13.60;2.95;;;5.90;99.90;;;;;;4982388;28;20191;-85
2024/01/27 11:17:46;;;;;;;5.77;2.87;;;;;;;;;;5003782;28;20223;-84
2024/01/27 11:20:13;;;;;;;2.05;1.85;;;6.50;99.90;;;;;;5015194;28;20159;-85
2024/01/27 11:22:39;;;;;;;2.90;2.17;;;6.80;99.90;;;;;;5012538;28;20183;-86
2024/01/27 11:25:10;;;;;;;3.05;1.73;;;6.80;99.90;;;;;;4995428;28;20202;-85
2024/01/27 11:27:36;;;;;;;4.82;2.05;;;6.70;99.90;;;;;;4986526;28;20203;-85
2024/01/27 11:30:03;;;;;;;2.07;1.70;;;6.70;99.90;;;;;;4989629;28;20214;-87
2024/01/27 11:32:29;;;;;;;1.83;1.27;;;;;;;;;;5013911;28;20175;-86
2024/01/27 11:34:54;;;;;;;5.82;2.53;;;6.90;99.90;;;;;;5008911;28;20247;-86
2024/01/27 11:37:24;;;;;;;13.80;2.47;;;;;;;;;;5010195;28;20208;-86
2024/01/27 11:39:50;;;;;;;4.20;1.77;;;;;;;;;;4972853;28;20190;-84
2024/01/27 11:42:17;;;;;;;4.40;2.40;;;7.00;99.90;;;;;;4982567;28;20179;-84
2024/01/27 11:44:44;;;;;;;8.73;1.67;;;7.00;99.90;;;;;;4991292;28;20846;-84
2024/01/27 11:47:18;;;;;;;6.57;1.85;;;7.00;99.90;;;;;;4997926;28;20181;-84
2024/01/27 11:49:54;;;;;;;3.95;1.58;;;7.10;99.90;;;;;;5006054;28;20206;-85
2024/01/27 11:52:20;;;;;;;10.65;2.20;;;7.20;99.90;;;;;;4993123;28;20175;-85
2024/01/27 11:54:46;;;;;;;8.80;1.37;;;;;;;;;;5009380;28;20189;-85
2024/01/27 11:57:12;;;;;;;2.97;2.17;;;;;;;;;;4986565;28;20458;-86
2024/01/27 11:59:37;;;;;;;2.80;0.95;;;7.30;99.90;;;;;;5003816;28;20433;-84
2024/01/27 12:02:04;;;;;;;2.50;1.37;;;;;;;;;;5013069;28;20226;-83
2024/01/27 12:04:30;;;;;;;5.28;2.22;;;7.60;99.90;;;;;;5011783;28;20175;-84
2024/01/27 12:06:56;;;;;;;6.32;2.20;;;7.50;99.90;;;;;;4997634;28;20211;-85
2024/01/27 12:09:22;;;;;;;4.00;1.80;;;;;;;;;;4995690;28;20190;-84
2024/01/27 12:11:48;;;;;;;7.93;1.80;;;7.50;99.90;;;;;;4995491;28;20172;-86
2024/01/27 12:14:14;;;;;;;1.00;0.87;;;;;;;;;;4994713;28;20711;-85
2024/01/27 12:16:40;;;;;;;2.10;1.30;;;;;;;;;;4986371;28;20242;-85
2024/01/27 12:19:11;;;;;;;4.65;1.50;;;7.80;99.90;;;;;;5007863;28;20461;-85
2024/01/27 12:21:36;;;;;;;1.60;1.40;;;7.80;99.90;;;;;;4991785;28;20259;-84
2024/01/27 12:24:02;;;;;;;3.30;1.93;;;8.00;99.90;;;;;;5018352;28;20167;-84
2024/01/27 12:26:30;;;;;;;2.83;1.77;;;8.10;99.90;;;;;;5015374;28;20195;-85
2024/01/27 12:28:57;;;;;;;4.05;1.63;;;;;;;;;;5014696;28;20439;-84
2024/01/27 12:31:24;;;;;;;1.90;1.45;;;8.20;99.90;;;;;;5015613;28;20171;-84
2024/01/27 12:33:53;;;;;;;13.70;2.38;;;8.30;99.90;;;;;;5018150;28;20171;-86
2024/01/27 12:36:20;;;;;;;2.20;1.67;;;8.40;99.90;;;;;;5022647;28;20206;-84
2024/01/27 12:38:58;;;;;;;2.47;1.33;;;8.40;99.90;;;;;;5026088;28;20187;-85
2024/01/27 12:41:29;;;;;;;2.80;1.58;;;8.40;99.90;;;;;;5018495;28;20179;-82
2024/01/27 12:43:55;;;;;;;30.30;4.07;;;8.30;99.90;;;;;;5013496;28;20244;-83
2024/01/27 12:46:21;;;;;;;7.05;1.88;;;8.20;99.90;;;;;;5002007;28;20207;-84
2024/01/27 12:48:47;;;;;;;9.15;1.55;;;8.10;99.90;;;;;;5016722;28;20163;-84
2024/01/27 12:51:13;;;;;;;7.67;2.73;;;;;;;;;;5008159;28;20183;-84
2024/01/27 12:53:43;;;;;;;2.78;1.25;;;8.10;99.90;;;;;;5018724;28;20418;-84
2024/01/27 12:56:09;;;;;;;1.98;1.65;;;8.10;99.90;;;;;;5004506;28;20203;-85
2024/01/27 12:58:35;;;;;;;3.15;1.48;;;8.10;99.90;;;;;;4984999;28;20238;-84
2024/01/27 13:01:01;;;;;;;4.77;1.60;;;8.20;99.90;;;;;;4983892;28;20187;-84
2024/01/27 13:03:26;;;;;;;4.60;1.90;;;8.20;99.90;;;;;;5002254;28;20427;-85
2024/01/27 13:05:52;;;;;;;5.87;1.93;;;;;;;;;;4999543;28;20206;-85
2024/01/27 13:08:18;;;;;;;2.10;1.37;;;;;;;;;;4981190;28;20171;-84
2024/01/27 13:10:44;;;;;;;2.47;1.70;;;;;;;;;;4982681;28;20470;-84
2024/01/27 13:13:10;;;;;;;4.03;1.60;;;;;;;;;;4986428;28;20938;-84
2024/01/27 13:15:36;;;;;;;6.27;3.03;;;;;;;;;;5002167;28;20461;-84
2024/01/27 13:18:02;;;;;;;4.50;1.70;;;;;;;;;;4999787;28;20473;-84